sensor_id;sensor_type;location;lat;lon;timestamp;P1;durP1;ratioP1;P2;durP2;ratioP2
7583;SDS011;3833;41.764;26.204;2023-11-21T00:00:41;1.43;;;1.30;;
7583;SDS011;3833;41.764;26.204;2023-11-21T00:03:08;1.10;;;1.10;;
7583;SDS011;3833;41.764;26.204;2023-11-21T00:05:38;1.33;;;1.13;;
7583;SDS011;3833;41.764;26.204;2023-11-21T00:08:06;1.17;;;1.17;;
7583;SDS011;3833;41.764;26.204;2023-11-21T00:10:33;1.40;;;1.30;;
7583;SDS011;3833;41.764;26.204;2023-11-21T00:13:03;3.43;;;1.10;;
7583;SDS011;3833;41.764;26.204;2023-11-21T00:15:30;1.60;;;1.40;;
7583;SDS011;3833;41.764;26.204;2023-11-21T00:17:57;1.10;;;1.10;;
7583;SDS011;3833;41.764;26.204;2023-11-21T00:20:24;1.20;;;1.20;;
7583;SDS011;3833;41.764;26.204;2023-11-21T00:22:52;1.17;;;1.17;;
7583;SDS011;3833;41.764;26.204;2023-11-21T00:25:19;1.10;;;1.10;;
7583;SDS011;3833;41.764;26.204;2023-11-21T00:27:46;1.20;;;1.20;;
7583;SDS011;3833;41.764;26.204;2023-11-21T00:30:13;1.20;;;1.20;;
7583;SDS011;3833;41.764;26.204;2023-11-21T00:32:40;1.30;;;1.20;;
7583;SDS011;3833;41.764;26.204;2023-11-21T00:35:08;1.17;;;1.17;;
7583;SDS011;3833;41.764;26.204;2023-11-21T00:37:35;1.17;;;1.17;;
7583;SDS011;3833;41.764;26.204;2023-11-21T00:40:06;1.53;;;1.00;;
7583;SDS011;3833;41.764;26.204;2023-11-21T00:42:34;1.53;;;1.03;;
7583;SDS011;3833;41.764;26.204;2023-11-21T00:45:01;1.23;;;1.17;;
7583;SDS011;3833;41.764;26.204;2023-11-21T00:47:28;1.10;;;1.10;;
7583;SDS011;3833;41.764;26.204;2023-11-21T00:49:55;1.40;;;1.17;;
7583;SDS011;3833;41.764;26.204;2023-11-21T00:52:22;1.20;;;1.10;;
7583;SDS011;3833;41.764;26.204;2023-11-21T00:54:49;1.10;;;1.10;;
7583;SDS011;3833;41.764;26.204;2023-11-21T00:57:17;1.53;;;1.43;;
7583;SDS011;3833;41.764;26.204;2023-11-21T00:59:44;1.37;;;1.27;;
7583;SDS011;3833;41.764;26.204;2023-11-21T01:02:11;2.60;;;1.40;;
7583;SDS011;3833;41.764;26.204;2023-11-21T01:04:38;1.47;;;1.37;;
7583;SDS011;3833;41.764;26.204;2023-11-21T01:07:05;1.20;;;1.20;;
7583;SDS011;3833;41.764;26.204;2023-11-21T01:09:32;1.33;;;1.33;;
7583;SDS011;3833;41.764;26.204;2023-11-21T01:11:59;1.30;;;1.20;;
7583;SDS011;3833;41.764;26.204;2023-11-21T01:14:27;1.27;;;1.27;;
7583;SDS011;3833;41.764;26.204;2023-11-21T01:16:54;1.40;;;1.30;;
7583;SDS011;3833;41.764;26.204;2023-11-21T01:19:21;1.10;;;1.10;;
7583;SDS011;3833;41.764;26.204;2023-11-21T01:21:48;1.10;;;1.10;;
7583;SDS011;3833;41.764;26.204;2023-11-21T01:24:15;1.10;;;1.10;;
7583;SDS011;3833;41.764;26.204;2023-11-21T01:26:42;1.30;;;1.30;;
7583;SDS011;3833;41.764;26.204;2023-11-21T01:29:11;1.20;;;1.20;;
7583;SDS011;3833;41.764;26.204;2023-11-21T01:31:40;1.43;;;1.30;;
7583;SDS011;3833;41.764;26.204;2023-11-21T01:34:07;1.20;;;1.20;;
7583;SDS011;3833;41.764;26.204;2023-11-21T01:36:33;1.10;;;1.10;;
7583;SDS011;3833;41.764;26.204;2023-11-21T01:39:00;1.00;;;1.00;;
7583;SDS011;3833;41.764;26.204;2023-11-21T01:41:33;1.20;;;1.20;;
7583;SDS011;3833;41.764;26.204;2023-11-21T01:44:00;1.03;;;1.03;;
7583;SDS011;3833;41.764;26.204;2023-11-21T01:46:27;1.00;;;1.00;;
7583;SDS011;3833;41.764;26.204;2023-11-21T01:48:56;1.10;;;1.10;;
7583;SDS011;3833;41.764;26.204;2023-11-21T01:51:22;1.03;;;1.03;;
7583;SDS011;3833;41.764;26.204;2023-11-21T01:53:51;1.40;;;1.30;;
7583;SDS011;3833;41.764;26.204;2023-11-21T01:56:19;1.00;;;1.00;;
7583;SDS011;3833;41.764;26.204;2023-11-21T01:58:46;1.00;;;1.00;;
7583;SDS011;3833;41.764;26.204;2023-11-21T02:01:13;1.00;;;1.00;;
7583;SDS011;3833;41.764;26.204;2023-11-21T02:03:40;0.93;;;0.93;;
7583;SDS011;3833;41.764;26.204;2023-11-21T02:06:08;0.90;;;0.90;;
7583;SDS011;3833;41.764;26.204;2023-11-21T02:08:35;1.03;;;1.03;;
7583;SDS011;3833;41.764;26.204;2023-11-21T02:11:03;0.97;;;0.97;;
7583;SDS011;3833;41.764;26.204;2023-11-21T02:13:30;0.90;;;0.90;;
7583;SDS011;3833;41.764;26.204;2023-11-21T02:15:58;1.10;;;1.10;;
7583;SDS011;3833;41.764;26.204;2023-11-21T02:18:25;1.10;;;1.10;;
7583;SDS011;3833;41.764;26.204;2023-11-21T02:20:54;0.90;;;0.90;;
7583;SDS011;3833;41.764;26.204;2023-11-21T02:23:23;1.17;;;1.17;;
7583;SDS011;3833;41.764;26.204;2023-11-21T02:25:53;1.20;;;1.10;;
7583;SDS011;3833;41.764;26.204;2023-11-21T02:28:21;1.10;;;1.10;;
7583;SDS011;3833;41.764;26.204;2023-11-21T02:30:51;1.30;;;1.20;;
7583;SDS011;3833;41.764;26.204;2023-11-21T02:33:20;1.20;;;1.20;;
7583;SDS011;3833;41.764;26.204;2023-11-21T02:35:47;1.13;;;1.13;;
7583;SDS011;3833;41.764;26.204;2023-11-21T02:38:14;0.93;;;0.90;;
7583;SDS011;3833;41.764;26.204;2023-11-21T02:40:43;1.30;;;1.30;;
7583;SDS011;3833;41.764;26.204;2023-11-21T02:43:10;1.17;;;1.17;;
7583;SDS011;3833;41.764;26.204;2023-11-21T02:45:37;2.90;;;2.80;;
7583;SDS011;3833;41.764;26.204;2023-11-21T02:48:04;3.30;;;3.20;;
7583;SDS011;3833;41.764;26.204;2023-11-21T02:50:31;2.90;;;2.80;;
7583;SDS011;3833;41.764;26.204;2023-11-21T02:52:58;2.93;;;2.77;;
7583;SDS011;3833;41.764;26.204;2023-11-21T02:55:25;2.40;;;2.30;;
7583;SDS011;3833;41.764;26.204;2023-11-21T02:57:54;2.50;;;2.40;;
7583;SDS011;3833;41.764;26.204;2023-11-21T03:00:21;2.30;;;2.20;;
7583;SDS011;3833;41.764;26.204;2023-11-21T03:02:51;2.57;;;2.47;;
7583;SDS011;3833;41.764;26.204;2023-11-21T03:05:18;2.60;;;2.50;;
7583;SDS011;3833;41.764;26.204;2023-11-21T03:07:45;2.47;;;2.37;;
7583;SDS011;3833;41.764;26.204;2023-11-21T03:10:12;2.27;;;2.17;;
7583;SDS011;3833;41.764;26.204;2023-11-21T03:12:39;2.33;;;2.23;;
7583;SDS011;3833;41.764;26.204;2023-11-21T03:15:08;2.37;;;2.27;;
7583;SDS011;3833;41.764;26.204;2023-11-21T03:17:35;2.20;;;2.10;;
7583;SDS011;3833;41.764;26.204;2023-11-21T03:20:02;2.37;;;2.27;;
7583;SDS011;3833;41.764;26.204;2023-11-21T03:22:30;2.43;;;2.33;;
7583;SDS011;3833;41.764;26.204;2023-11-21T03:24:57;2.37;;;2.27;;
7583;SDS011;3833;41.764;26.204;2023-11-21T03:27:24;1.87;;;1.80;;
7583;SDS011;3833;41.764;26.204;2023-11-21T03:29:50;2.20;;;2.10;;
7583;SDS011;3833;41.764;26.204;2023-11-21T03:32:19;2.27;;;2.10;;
7583;SDS011;3833;41.764;26.204;2023-11-21T03:34:55;2.23;;;2.13;;
7583;SDS011;3833;41.764;26.204;2023-11-21T03:37:23;2.10;;;2.00;;
7583;SDS011;3833;41.764;26.204;2023-11-21T03:39:50;2.00;;;1.90;;
7583;SDS011;3833;41.764;26.204;2023-11-21T03:42:17;2.20;;;2.10;;
7583;SDS011;3833;41.764;26.204;2023-11-21T03:44:46;2.30;;;2.20;;
7583;SDS011;3833;41.764;26.204;2023-11-21T03:47:13;2.40;;;2.30;;
7583;SDS011;3833;41.764;26.204;2023-11-21T03:49:42;2.30;;;2.20;;
7583;SDS011;3833;41.764;26.204;2023-11-21T03:52:09;2.43;;;2.30;;
7583;SDS011;3833;41.764;26.204;2023-11-21T03:54:36;2.13;;;2.03;;
7583;SDS011;3833;41.764;26.204;2023-11-21T03:57:03;2.20;;;2.10;;
7583;SDS011;3833;41.764;26.204;2023-11-21T03:59:30;2.03;;;1.93;;
7583;SDS011;3833;41.764;26.204;2023-11-21T04:01:57;2.20;;;2.10;;
7583;SDS011;3833;41.764;26.204;2023-11-21T04:04:24;2.10;;;2.00;;
7583;SDS011;3833;41.764;26.204;2023-11-21T04:06:52;2.20;;;2.10;;
7583;SDS011;3833;41.764;26.204;2023-11-21T04:09:19;2.13;;;2.03;;
7583;SDS011;3833;41.764;26.204;2023-11-21T04:11:49;1.80;;;1.80;;
7583;SDS011;3833;41.764;26.204;2023-11-21T04:14:16;1.60;;;1.60;;
7583;SDS011;3833;41.764;26.204;2023-11-21T04:16:43;2.20;;;2.10;;
7583;SDS011;3833;41.764;26.204;2023-11-21T04:19:10;2.10;;;2.00;;
7583;SDS011;3833;41.764;26.204;2023-11-21T04:21:39;1.77;;;1.70;;
7583;SDS011;3833;41.764;26.204;2023-11-21T04:24:08;1.70;;;1.70;;
7583;SDS011;3833;41.764;26.204;2023-11-21T04:26:35;1.93;;;1.87;;
7583;SDS011;3833;41.764;26.204;2023-11-21T04:29:02;2.00;;;1.90;;
7583;SDS011;3833;41.764;26.204;2023-11-21T04:31:29;2.20;;;2.10;;
7583;SDS011;3833;41.764;26.204;2023-11-21T04:33:57;2.00;;;1.90;;
7583;SDS011;3833;41.764;26.204;2023-11-21T04:36:24;1.90;;;1.80;;
7583;SDS011;3833;41.764;26.204;2023-11-21T04:38:50;2.10;;;2.00;;
7583;SDS011;3833;41.764;26.204;2023-11-21T04:41:19;2.00;;;2.00;;
7583;SDS011;3833;41.764;26.204;2023-11-21T04:43:46;2.23;;;2.13;;
7583;SDS011;3833;41.764;26.204;2023-11-21T04:46:13;1.93;;;1.90;;
7583;SDS011;3833;41.764;26.204;2023-11-21T04:48:39;2.30;;;2.20;;
7583;SDS011;3833;41.764;26.204;2023-11-21T04:51:06;2.27;;;2.17;;
7583;SDS011;3833;41.764;26.204;2023-11-21T04:53:33;1.93;;;1.93;;
7583;SDS011;3833;41.764;26.204;2023-11-21T04:56:01;2.30;;;2.20;;
7583;SDS011;3833;41.764;26.204;2023-11-21T04:58:30;1.73;;;1.70;;
7583;SDS011;3833;41.764;26.204;2023-11-21T05:00:58;1.87;;;1.83;;
7583;SDS011;3833;41.764;26.204;2023-11-21T05:03:25;1.93;;;1.83;;
7583;SDS011;3833;41.764;26.204;2023-11-21T05:05:51;2.30;;;2.10;;
7583;SDS011;3833;41.764;26.204;2023-11-21T05:08:18;1.80;;;1.70;;
7583;SDS011;3833;41.764;26.204;2023-11-21T05:10:47;2.30;;;2.20;;
7583;SDS011;3833;41.764;26.204;2023-11-21T05:13:15;2.80;;;2.60;;
7583;SDS011;3833;41.764;26.204;2023-11-21T05:15:44;2.60;;;2.50;;
7583;SDS011;3833;41.764;26.204;2023-11-21T05:18:11;2.07;;;2.00;;
7583;SDS011;3833;41.764;26.204;2023-11-21T05:20:39;2.70;;;2.60;;
7583;SDS011;3833;41.764;26.204;2023-11-21T05:23:06;2.10;;;2.00;;
7583;SDS011;3833;41.764;26.204;2023-11-21T05:25:33;2.03;;;1.93;;
7583;SDS011;3833;41.764;26.204;2023-11-21T05:28:01;2.43;;;2.33;;
7583;SDS011;3833;41.764;26.204;2023-11-21T05:30:29;1.97;;;1.87;;
7583;SDS011;3833;41.764;26.204;2023-11-21T05:32:57;2.20;;;2.10;;
7583;SDS011;3833;41.764;26.204;2023-11-21T05:35:24;2.20;;;2.10;;
7583;SDS011;3833;41.764;26.204;2023-11-21T05:37:51;2.27;;;2.17;;
7583;SDS011;3833;41.764;26.204;2023-11-21T05:40:17;2.10;;;2.00;;
7583;SDS011;3833;41.764;26.204;2023-11-21T05:42:47;2.90;;;2.73;;
7583;SDS011;3833;41.764;26.204;2023-11-21T05:45:14;1.80;;;1.60;;
7583;SDS011;3833;41.764;26.204;2023-11-21T05:47:42;6.10;;;2.40;;
7583;SDS011;3833;41.764;26.204;2023-11-21T05:50:12;10.77;;;5.03;;
7583;SDS011;3833;41.764;26.204;2023-11-21T05:52:41;15.10;;;6.37;;
7583;SDS011;3833;41.764;26.204;2023-11-21T05:55:08;14.70;;;7.37;;
7583;SDS011;3833;41.764;26.204;2023-11-21T05:57:36;3.67;;;3.37;;
7583;SDS011;3833;41.764;26.204;2023-11-21T06:00:04;8.33;;;3.07;;
7583;SDS011;3833;41.764;26.204;2023-11-21T06:02:36;3.30;;;2.67;;
7583;SDS011;3833;41.764;26.204;2023-11-21T06:05:04;4.83;;;2.80;;
7583;SDS011;3833;41.764;26.204;2023-11-21T06:07:33;5.90;;;3.27;;
7583;SDS011;3833;41.764;26.204;2023-11-21T06:10:01;4.73;;;2.33;;
7583;SDS011;3833;41.764;26.204;2023-11-21T06:12:31;2.27;;;2.07;;
7583;SDS011;3833;41.764;26.204;2023-11-21T06:15:01;2.97;;;2.30;;
7583;SDS011;3833;41.764;26.204;2023-11-21T06:17:30;3.63;;;2.73;;
7583;SDS011;3833;41.764;26.204;2023-11-21T06:19:57;3.33;;;2.53;;
7583;SDS011;3833;41.764;26.204;2023-11-21T06:22:24;2.93;;;1.97;;
7583;SDS011;3833;41.764;26.204;2023-11-21T06:24:52;6.23;;;4.00;;
7583;SDS011;3833;41.764;26.204;2023-11-21T06:27:19;14.40;;;6.20;;
7583;SDS011;3833;41.764;26.204;2023-11-21T06:29:46;13.70;;;6.60;;
7583;SDS011;3833;41.764;26.204;2023-11-21T06:32:13;16.03;;;7.70;;
7583;SDS011;3833;41.764;26.204;2023-11-21T06:34:41;12.73;;;5.70;;
7583;SDS011;3833;41.764;26.204;2023-11-21T06:37:08;8.00;;;4.67;;
7583;SDS011;3833;41.764;26.204;2023-11-21T06:39:36;6.80;;;5.40;;
7583;SDS011;3833;41.764;26.204;2023-11-21T06:42:05;14.90;;;7.40;;
7583;SDS011;3833;41.764;26.204;2023-11-21T06:44:32;14.93;;;7.37;;
7583;SDS011;3833;41.764;26.204;2023-11-21T06:47:00;13.23;;;6.67;;
7583;SDS011;3833;41.764;26.204;2023-11-21T06:49:28;11.43;;;7.60;;
7583;SDS011;3833;41.764;26.204;2023-11-21T06:51:56;20.27;;;9.60;;
7583;SDS011;3833;41.764;26.204;2023-11-21T06:54:23;11.43;;;7.43;;
7583;SDS011;3833;41.764;26.204;2023-11-21T06:56:50;16.87;;;7.80;;
7583;SDS011;3833;41.764;26.204;2023-11-21T06:59:20;16.77;;;9.67;;
7583;SDS011;3833;41.764;26.204;2023-11-21T07:01:47;17.47;;;11.70;;
7583;SDS011;3833;41.764;26.204;2023-11-21T07:04:14;11.40;;;7.20;;
7583;SDS011;3833;41.764;26.204;2023-11-21T07:06:41;8.73;;;6.10;;
7583;SDS011;3833;41.764;26.204;2023-11-21T07:09:08;10.80;;;6.43;;
7583;SDS011;3833;41.764;26.204;2023-11-21T07:11:36;8.17;;;5.53;;
7583;SDS011;3833;41.764;26.204;2023-11-21T07:14:04;6.43;;;4.97;;
7583;SDS011;3833;41.764;26.204;2023-11-21T07:16:34;6.50;;;4.17;;
7583;SDS011;3833;41.764;26.204;2023-11-21T07:19:02;6.10;;;3.50;;
7583;SDS011;3833;41.764;26.204;2023-11-21T07:21:31;3.57;;;3.23;;
7583;SDS011;3833;41.764;26.204;2023-11-21T07:23:58;3.40;;;3.10;;
7583;SDS011;3833;41.764;26.204;2023-11-21T07:26:26;4.13;;;3.00;;
7583;SDS011;3833;41.764;26.204;2023-11-21T07:28:53;5.00;;;3.60;;
7583;SDS011;3833;41.764;26.204;2023-11-21T07:31:20;7.60;;;4.40;;
7583;SDS011;3833;41.764;26.204;2023-11-21T07:33:49;5.13;;;3.40;;
7583;SDS011;3833;41.764;26.204;2023-11-21T07:36:17;3.23;;;2.80;;
7583;SDS011;3833;41.764;26.204;2023-11-21T07:38:45;4.40;;;2.93;;
7583;SDS011;3833;41.764;26.204;2023-11-21T07:41:12;3.03;;;2.70;;
7583;SDS011;3833;41.764;26.204;2023-11-21T07:43:40;4.03;;;3.30;;
7583;SDS011;3833;41.764;26.204;2023-11-21T07:46:07;3.97;;;2.93;;
7583;SDS011;3833;41.764;26.204;2023-11-21T07:48:35;4.30;;;2.80;;
7583;SDS011;3833;41.764;26.204;2023-11-21T07:51:03;2.77;;;2.50;;
7583;SDS011;3833;41.764;26.204;2023-11-21T07:53:31;3.43;;;2.33;;
7583;SDS011;3833;41.764;26.204;2023-11-21T07:55:58;4.13;;;2.73;;
7583;SDS011;3833;41.764;26.204;2023-11-21T07:58:25;3.13;;;2.90;;
7583;SDS011;3833;41.764;26.204;2023-11-21T08:00:52;3.00;;;2.70;;
7583;SDS011;3833;41.764;26.204;2023-11-21T08:03:19;3.17;;;2.87;;
7583;SDS011;3833;41.764;26.204;2023-11-21T08:05:46;3.03;;;2.73;;
7583;SDS011;3833;41.764;26.204;2023-11-21T08:08:14;2.83;;;2.53;;
7583;SDS011;3833;41.764;26.204;2023-11-21T08:10:43;3.27;;;2.50;;
7583;SDS011;3833;41.764;26.204;2023-11-21T08:13:13;3.23;;;2.93;;
7583;SDS011;3833;41.764;26.204;2023-11-21T08:15:42;2.70;;;2.50;;
7583;SDS011;3833;41.764;26.204;2023-11-21T08:18:11;4.70;;;2.27;;
7583;SDS011;3833;41.764;26.204;2023-11-21T08:20:40;1.97;;;1.87;;
7583;SDS011;3833;41.764;26.204;2023-11-21T08:23:06;2.60;;;2.40;;
7583;SDS011;3833;41.764;26.204;2023-11-21T08:25:35;2.87;;;2.30;;
7583;SDS011;3833;41.764;26.204;2023-11-21T08:28:02;4.00;;;2.80;;
7583;SDS011;3833;41.764;26.204;2023-11-21T08:30:29;2.73;;;2.50;;
7583;SDS011;3833;41.764;26.204;2023-11-21T08:32:57;5.20;;;3.00;;
7583;SDS011;3833;41.764;26.204;2023-11-21T08:35:24;3.57;;;2.40;;
7583;SDS011;3833;41.764;26.204;2023-11-21T08:37:51;2.97;;;2.77;;
7583;SDS011;3833;41.764;26.204;2023-11-21T08:40:19;2.23;;;2.03;;
7583;SDS011;3833;41.764;26.204;2023-11-21T08:42:47;3.30;;;2.30;;
7583;SDS011;3833;41.764;26.204;2023-11-21T08:45:17;3.73;;;2.50;;
7583;SDS011;3833;41.764;26.204;2023-11-21T08:47:44;3.50;;;2.10;;
7583;SDS011;3833;41.764;26.204;2023-11-21T08:50:11;2.77;;;2.37;;
7583;SDS011;3833;41.764;26.204;2023-11-21T08:52:38;3.90;;;2.33;;
7583;SDS011;3833;41.764;26.204;2023-11-21T08:55:06;2.83;;;2.40;;
7583;SDS011;3833;41.764;26.204;2023-11-21T08:57:34;2.53;;;2.20;;
7583;SDS011;3833;41.764;26.204;2023-11-21T09:00:03;2.13;;;1.83;;
7583;SDS011;3833;41.764;26.204;2023-11-21T09:02:33;2.97;;;2.77;;
7583;SDS011;3833;41.764;26.204;2023-11-21T09:05:00;3.83;;;1.80;;
7583;SDS011;3833;41.764;26.204;2023-11-21T09:07:28;3.53;;;2.03;;
7583;SDS011;3833;41.764;26.204;2023-11-21T09:09:55;3.17;;;2.53;;
7583;SDS011;3833;41.764;26.204;2023-11-21T09:12:22;2.00;;;1.80;;
7583;SDS011;3833;41.764;26.204;2023-11-21T09:14:51;2.80;;;1.93;;
7583;SDS011;3833;41.764;26.204;2023-11-21T09:17:19;2.93;;;2.17;;
7583;SDS011;3833;41.764;26.204;2023-11-21T09:19:46;2.40;;;2.20;;
7583;SDS011;3833;41.764;26.204;2023-11-21T09:22:16;2.67;;;2.30;;
7583;SDS011;3833;41.764;26.204;2023-11-21T09:24:43;2.17;;;1.97;;
7583;SDS011;3833;41.764;26.204;2023-11-21T09:27:10;2.67;;;2.47;;
7583;SDS011;3833;41.764;26.204;2023-11-21T09:29:37;1.93;;;1.83;;
7583;SDS011;3833;41.764;26.204;2023-11-21T09:32:05;3.37;;;2.70;;
7583;SDS011;3833;41.764;26.204;2023-11-21T09:34:34;2.53;;;2.33;;
7583;SDS011;3833;41.764;26.204;2023-11-21T09:37:03;2.83;;;2.53;;
7583;SDS011;3833;41.764;26.204;2023-11-21T09:39:31;4.63;;;2.90;;
7583;SDS011;3833;41.764;26.204;2023-11-21T09:42:01;3.13;;;2.57;;
7583;SDS011;3833;41.764;26.204;2023-11-21T09:44:32;4.67;;;3.00;;
7583;SDS011;3833;41.764;26.204;2023-11-21T09:47:04;3.17;;;2.87;;
7583;SDS011;3833;41.764;26.204;2023-11-21T09:49:37;2.30;;;2.10;;
7583;SDS011;3833;41.764;26.204;2023-11-21T09:52:05;4.13;;;2.10;;
7583;SDS011;3833;41.764;26.204;2023-11-21T09:54:34;3.23;;;2.30;;
7583;SDS011;3833;41.764;26.204;2023-11-21T09:57:02;2.40;;;2.20;;
7583;SDS011;3833;41.764;26.204;2023-11-21T09:59:30;2.10;;;1.90;;
7583;SDS011;3833;41.764;26.204;2023-11-21T10:01:57;1.97;;;1.83;;
7583;SDS011;3833;41.764;26.204;2023-11-21T10:04:24;2.20;;;2.00;;
7583;SDS011;3833;41.764;26.204;2023-11-21T10:06:53;1.93;;;1.80;;
7583;SDS011;3833;41.764;26.204;2023-11-21T10:09:20;2.20;;;2.00;;
7583;SDS011;3833;41.764;26.204;2023-11-21T10:11:47;1.77;;;1.67;;
7583;SDS011;3833;41.764;26.204;2023-11-21T10:14:17;2.70;;;2.00;;
7583;SDS011;3833;41.764;26.204;2023-11-21T10:16:47;2.47;;;1.80;;
7583;SDS011;3833;41.764;26.204;2023-11-21T10:19:15;2.50;;;2.30;;
7583;SDS011;3833;41.764;26.204;2023-11-21T10:21:43;2.03;;;1.87;;
7583;SDS011;3833;41.764;26.204;2023-11-21T10:24:11;2.23;;;2.03;;
7583;SDS011;3833;41.764;26.204;2023-11-21T10:26:38;1.93;;;1.83;;
7583;SDS011;3833;41.764;26.204;2023-11-21T10:29:07;1.73;;;1.63;;
7583;SDS011;3833;41.764;26.204;2023-11-21T10:31:34;2.50;;;2.30;;
7583;SDS011;3833;41.764;26.204;2023-11-21T10:34:13;2.03;;;1.93;;
7583;SDS011;3833;41.764;26.204;2023-11-21T10:36:41;3.00;;;2.10;;
7583;SDS011;3833;41.764;26.204;2023-11-21T10:39:08;2.10;;;2.00;;
7583;SDS011;3833;41.764;26.204;2023-11-21T10:41:37;3.43;;;2.50;;
7583;SDS011;3833;41.764;26.204;2023-11-21T10:44:05;2.97;;;2.53;;
7583;SDS011;3833;41.764;26.204;2023-11-21T10:46:32;2.33;;;2.13;;
7583;SDS011;3833;41.764;26.204;2023-11-21T10:49:00;2.97;;;2.50;;
7583;SDS011;3833;41.764;26.204;2023-11-21T10:51:27;3.73;;;2.47;;
7583;SDS011;3833;41.764;26.204;2023-11-21T10:53:54;3.40;;;2.60;;
7583;SDS011;3833;41.764;26.204;2023-11-21T10:56:23;3.30;;;2.73;;
7583;SDS011;3833;41.764;26.204;2023-11-21T10:58:51;2.83;;;2.53;;
7583;SDS011;3833;41.764;26.204;2023-11-21T11:01:19;3.93;;;2.80;;
7583;SDS011;3833;41.764;26.204;2023-11-21T11:03:50;2.53;;;2.33;;
7583;SDS011;3833;41.764;26.204;2023-11-21T11:06:19;3.33;;;2.30;;
7583;SDS011;3833;41.764;26.204;2023-11-21T11:08:47;3.93;;;3.00;;
7583;SDS011;3833;41.764;26.204;2023-11-21T11:11:14;3.37;;;3.07;;
7583;SDS011;3833;41.764;26.204;2023-11-21T11:13:43;4.03;;;3.13;;
7583;SDS011;3833;41.764;26.204;2023-11-21T11:16:13;4.57;;;2.77;;
7583;SDS011;3833;41.764;26.204;2023-11-21T11:18:42;4.63;;;3.83;;
7583;SDS011;3833;41.764;26.204;2023-11-21T11:21:13;5.37;;;4.17;;
7583;SDS011;3833;41.764;26.204;2023-11-21T11:23:51;5.20;;;4.70;;
7583;SDS011;3833;41.764;26.204;2023-11-21T11:26:31;4.57;;;3.10;;
7583;SDS011;3833;41.764;26.204;2023-11-21T11:29:03;7.27;;;5.57;;
7583;SDS011;3833;41.764;26.204;2023-11-21T11:31:39;7.00;;;4.67;;
7583;SDS011;3833;41.764;26.204;2023-11-21T11:34:26;4.27;;;3.73;;
7583;SDS011;3833;41.764;26.204;2023-11-21T11:36:58;4.30;;;3.00;;
7583;SDS011;3833;41.764;26.204;2023-11-21T11:39:28;3.20;;;2.90;;
7583;SDS011;3833;41.764;26.204;2023-11-21T11:41:55;4.40;;;3.83;;
7583;SDS011;3833;41.764;26.204;2023-11-21T11:47:22;11.60;;;8.37;;
7583;SDS011;3833;41.764;26.204;2023-11-21T11:52:42;7.30;;;4.80;;
7583;SDS011;3833;41.764;26.204;2023-11-21T11:55:09;6.63;;;4.47;;
7583;SDS011;3833;41.764;26.204;2023-11-21T11:57:37;4.00;;;3.60;;
7583;SDS011;3833;41.764;26.204;2023-11-21T12:00:11;3.43;;;3.10;;
7583;SDS011;3833;41.764;26.204;2023-11-21T12:02:45;4.70;;;3.33;;
7583;SDS011;3833;41.764;26.204;2023-11-21T12:05:13;3.90;;;3.50;;
7583;SDS011;3833;41.764;26.204;2023-11-21T12:07:47;3.57;;;3.27;;
7583;SDS011;3833;41.764;26.204;2023-11-21T12:10:16;4.43;;;3.83;;
7583;SDS011;3833;41.764;26.204;2023-11-21T12:12:45;6.07;;;4.20;;
7583;SDS011;3833;41.764;26.204;2023-11-21T12:15:12;4.30;;;3.53;;
7583;SDS011;3833;41.764;26.204;2023-11-21T12:17:40;5.20;;;4.27;;
7583;SDS011;3833;41.764;26.204;2023-11-21T12:20:10;4.53;;;4.10;;
7583;SDS011;3833;41.764;26.204;2023-11-21T12:22:43;4.57;;;3.20;;
7583;SDS011;3833;41.764;26.204;2023-11-21T12:25:12;3.67;;;3.37;;
7583;SDS011;3833;41.764;26.204;2023-11-21T12:27:42;3.57;;;2.30;;
7583;SDS011;3833;41.764;26.204;2023-11-21T12:30:11;3.00;;;2.70;;
7583;SDS011;3833;41.764;26.204;2023-11-21T12:32:40;3.17;;;2.43;;
7583;SDS011;3833;41.764;26.204;2023-11-21T12:35:10;3.63;;;2.50;;
7583;SDS011;3833;41.764;26.204;2023-11-21T12:37:37;2.33;;;2.13;;
7583;SDS011;3833;41.764;26.204;2023-11-21T12:40:05;2.47;;;2.13;;
7583;SDS011;3833;41.764;26.204;2023-11-21T12:42:37;2.53;;;2.30;;
7583;SDS011;3833;41.764;26.204;2023-11-21T12:45:09;3.33;;;2.87;;
7583;SDS011;3833;41.764;26.204;2023-11-21T12:47:41;4.30;;;2.70;;
7583;SDS011;3833;41.764;26.204;2023-11-21T12:50:11;2.73;;;2.53;;
7583;SDS011;3833;41.764;26.204;2023-11-21T12:52:40;10.03;;;5.67;;
7583;SDS011;3833;41.764;26.204;2023-11-21T12:55:09;4.60;;;3.47;;
7583;SDS011;3833;41.764;26.204;2023-11-21T12:57:41;3.57;;;2.87;;
7583;SDS011;3833;41.764;26.204;2023-11-21T13:00:10;5.53;;;3.80;;
7583;SDS011;3833;41.764;26.204;2023-11-21T13:02:40;4.77;;;3.63;;
7583;SDS011;3833;41.764;26.204;2023-11-21T13:05:08;5.77;;;4.00;;
7583;SDS011;3833;41.764;26.204;2023-11-21T13:07:46;6.53;;;4.10;;
7583;SDS011;3833;41.764;26.204;2023-11-21T13:10:16;5.37;;;3.40;;
7583;SDS011;3833;41.764;26.204;2023-11-21T13:12:43;4.43;;;3.10;;
7583;SDS011;3833;41.764;26.204;2023-11-21T13:15:13;3.57;;;3.20;;
7583;SDS011;3833;41.764;26.204;2023-11-21T13:17:42;3.67;;;3.10;;
7583;SDS011;3833;41.764;26.204;2023-11-21T13:20:12;3.23;;;2.93;;
7583;SDS011;3833;41.764;26.204;2023-11-21T13:22:44;3.03;;;2.83;;
7583;SDS011;3833;41.764;26.204;2023-11-21T13:25:15;3.47;;;3.27;;
7583;SDS011;3833;41.764;26.204;2023-11-21T13:27:44;3.50;;;3.20;;
7583;SDS011;3833;41.764;26.204;2023-11-21T13:30:12;3.50;;;3.20;;
7583;SDS011;3833;41.764;26.204;2023-11-21T13:32:42;3.77;;;3.27;;
7583;SDS011;3833;41.764;26.204;2023-11-21T13:35:12;5.23;;;3.13;;
7583;SDS011;3833;41.764;26.204;2023-11-21T13:37:48;2.93;;;2.73;;
7583;SDS011;3833;41.764;26.204;2023-11-21T13:40:21;3.50;;;3.30;;
7583;SDS011;3833;41.764;26.204;2023-11-21T13:42:52;3.03;;;2.80;;
7583;SDS011;3833;41.764;26.204;2023-11-21T13:45:24;1.97;;;1.67;;
7583;SDS011;3833;41.764;26.204;2023-11-21T13:47:53;1.83;;;1.73;;
7583;SDS011;3833;41.764;26.204;2023-11-21T13:50:24;2.53;;;2.17;;
7583;SDS011;3833;41.764;26.204;2023-11-21T13:52:58;2.40;;;2.20;;
7583;SDS011;3833;41.764;26.204;2023-11-21T13:55:29;2.77;;;1.97;;
7583;SDS011;3833;41.764;26.204;2023-11-21T13:57:56;2.10;;;2.00;;
7583;SDS011;3833;41.764;26.204;2023-11-21T14:00:24;3.67;;;2.47;;
7583;SDS011;3833;41.764;26.204;2023-11-21T14:03:09;2.23;;;2.03;;
7583;SDS011;3833;41.764;26.204;2023-11-21T14:05:45;2.03;;;1.83;;
7583;SDS011;3833;41.764;26.204;2023-11-21T14:08:18;1.80;;;1.70;;
7583;SDS011;3833;41.764;26.204;2023-11-21T14:10:46;1.90;;;1.77;;
7583;SDS011;3833;41.764;26.204;2023-11-21T14:13:20;1.80;;;1.70;;
7583;SDS011;3833;41.764;26.204;2023-11-21T14:15:48;2.07;;;1.97;;
7583;SDS011;3833;41.764;26.204;2023-11-21T14:18:17;3.67;;;3.13;;
7583;SDS011;3833;41.764;26.204;2023-11-21T14:20:54;2.50;;;2.23;;
7583;SDS011;3833;41.764;26.204;2023-11-21T14:23:21;3.57;;;3.00;;
7583;SDS011;3833;41.764;26.204;2023-11-21T14:25:48;3.17;;;2.57;;
7583;SDS011;3833;41.764;26.204;2023-11-21T14:28:16;3.43;;;2.93;;
7583;SDS011;3833;41.764;26.204;2023-11-21T14:30:44;3.17;;;2.47;;
7583;SDS011;3833;41.764;26.204;2023-11-21T14:33:11;2.57;;;2.10;;
7583;SDS011;3833;41.764;26.204;2023-11-21T14:35:38;3.23;;;2.33;;
7583;SDS011;3833;41.764;26.204;2023-11-21T14:38:08;2.77;;;2.57;;
7583;SDS011;3833;41.764;26.204;2023-11-21T14:40:35;2.27;;;1.80;;
7583;SDS011;3833;41.764;26.204;2023-11-21T14:43:02;2.30;;;2.10;;
7583;SDS011;3833;41.764;26.204;2023-11-21T14:45:30;3.03;;;2.00;;
7583;SDS011;3833;41.764;26.204;2023-11-21T14:47:57;3.17;;;2.77;;
7583;SDS011;3833;41.764;26.204;2023-11-21T14:50:31;2.47;;;2.20;;
7583;SDS011;3833;41.764;26.204;2023-11-21T14:53:15;2.70;;;2.00;;
7583;SDS011;3833;41.764;26.204;2023-11-21T14:55:41;1.97;;;1.70;;
7583;SDS011;3833;41.764;26.204;2023-11-21T14:58:22;3.37;;;2.03;;
7583;SDS011;3833;41.764;26.204;2023-11-21T15:00:54;2.70;;;2.00;;
7583;SDS011;3833;41.764;26.204;2023-11-21T15:03:24;1.97;;;1.87;;
7583;SDS011;3833;41.764;26.204;2023-11-21T15:06:08;2.03;;;1.63;;
7583;SDS011;3833;41.764;26.204;2023-11-21T15:09:03;1.77;;;1.67;;
7583;SDS011;3833;41.764;26.204;2023-11-21T15:11:47;2.57;;;1.47;;
7583;SDS011;3833;41.764;26.204;2023-11-21T15:14:14;1.73;;;1.63;;